sensor_id;sensor_type;location;lat;lon;timestamp;P1;durP1;ratioP1;P2;durP2;ratioP2
58864;SDS011;45702;52.982;6.658;2022-10-16T00:01:29;12.98;;;3.50;;
58864;SDS011;45702;52.982;6.658;2022-10-16T00:03:57;9.43;;;3.40;;
58864;SDS011;45702;52.982;6.658;2022-10-16T00:06:23;11.15;;;3.53;;
58864;SDS011;45702;52.982;6.658;2022-10-16T00:08:49;13.07;;;3.90;;
58864;SDS011;45702;52.982;6.658;2022-10-16T00:11:16;9.55;;;3.38;;
58864;SDS011;45702;52.982;6.658;2022-10-16T00:13:43;11.98;;;3.70;;
58864;SDS011;45702;52.982;6.658;2022-10-16T00:16:10;15.55;;;4.10;;
58864;SDS011;45702;52.982;6.658;2022-10-16T00:18:36;7.53;;;3.22;;
58864;SDS011;45702;52.982;6.658;2022-10-16T00:23:35;8.63;;;3.45;;
58864;SDS011;45702;52.982;6.658;2022-10-16T00:26:02;9.98;;;3.55;;
58864;SDS011;45702;52.982;6.658;2022-10-16T00:28:29;8.50;;;3.75;;
58864;SDS011;45702;52.982;6.658;2022-10-16T00:30:55;10.40;;;3.50;;
58864;SDS011;45702;52.982;6.658;2022-10-16T00:33:22;12.98;;;3.53;;
58864;SDS011;45702;52.982;6.658;2022-10-16T00:35:48;12.13;;;3.42;;
58864;SDS011;45702;52.982;6.658;2022-10-16T00:38:15;9.80;;;3.63;;
58864;SDS011;45702;52.982;6.658;2022-10-16T00:40:41;10.20;;;3.78;;
58864;SDS011;45702;52.982;6.658;2022-10-16T00:43:14;7.68;;;3.22;;
58864;SDS011;45702;52.982;6.658;2022-10-16T00:45:58;12.75;;;3.85;;
58864;SDS011;45702;52.982;6.658;2022-10-16T00:48:24;12.27;;;3.42;;
58864;SDS011;45702;52.982;6.658;2022-10-16T00:50:50;10.70;;;3.70;;
58864;SDS011;45702;52.982;6.658;2022-10-16T00:53:16;9.93;;;3.50;;
58864;SDS011;45702;52.982;6.658;2022-10-16T00:55:43;8.48;;;3.20;;
58864;SDS011;45702;52.982;6.658;2022-10-16T00:58:09;14.80;;;3.83;;
58864;SDS011;45702;52.982;6.658;2022-10-16T01:00:35;11.32;;;3.70;;
58864;SDS011;45702;52.982;6.658;2022-10-16T01:03:02;7.95;;;3.25;;
58864;SDS011;45702;52.982;6.658;2022-10-16T01:05:30;14.05;;;3.25;;
58864;SDS011;45702;52.982;6.658;2022-10-16T01:08:09;12.73;;;3.80;;
58864;SDS011;45702;52.982;6.658;2022-10-16T01:10:57;10.20;;;3.38;;
58864;SDS011;45702;52.982;6.658;2022-10-16T01:13:33;11.48;;;3.47;;
58864;SDS011;45702;52.982;6.658;2022-10-16T01:16:07;10.60;;;3.63;;
58864;SDS011;45702;52.982;6.658;2022-10-16T01:21:30;11.65;;;3.60;;
58864;SDS011;45702;52.982;6.658;2022-10-16T01:29:21;10.75;;;3.60;;
58864;SDS011;45702;52.982;6.658;2022-10-16T01:31:50;11.27;;;3.55;;
58864;SDS011;45702;52.982;6.658;2022-10-16T01:34:42;12.88;;;3.28;;
58864;SDS011;45702;52.982;6.658;2022-10-16T01:37:05;11.18;;;3.78;;
58864;SDS011;45702;52.982;6.658;2022-10-16T01:39:34;11.13;;;3.65;;
58864;SDS011;45702;52.982;6.658;2022-10-16T01:42:03;7.20;;;3.30;;
58864;SDS011;45702;52.982;6.658;2022-10-16T01:44:31;8.45;;;3.33;;
58864;SDS011;45702;52.982;6.658;2022-10-16T01:46:58;11.82;;;3.67;;
58864;SDS011;45702;52.982;6.658;2022-10-16T01:49:27;9.32;;;3.42;;
58864;SDS011;45702;52.982;6.658;2022-10-16T01:51:56;11.30;;;3.42;;
58864;SDS011;45702;52.982;6.658;2022-10-16T01:54:25;9.90;;;3.40;;
58864;SDS011;45702;52.982;6.658;2022-10-16T01:56:53;11.65;;;3.50;;
58864;SDS011;45702;52.982;6.658;2022-10-16T01:59:21;9.07;;;3.40;;
58864;SDS011;45702;52.982;6.658;2022-10-16T02:01:49;8.40;;;3.13;;
58864;SDS011;45702;52.982;6.658;2022-10-16T02:06:48;13.75;;;3.78;;
58864;SDS011;45702;52.982;6.658;2022-10-16T02:09:14;12.30;;;3.95;;
58864;SDS011;45702;52.982;6.658;2022-10-16T02:11:42;9.43;;;3.33;;
58864;SDS011;45702;52.982;6.658;2022-10-16T02:14:08;17.95;;;3.70;;
58864;SDS011;45702;52.982;6.658;2022-10-16T02:16:35;10.27;;;3.70;;
58864;SDS011;45702;52.982;6.658;2022-10-16T02:19:02;8.82;;;3.88;;
58864;SDS011;45702;52.982;6.658;2022-10-16T02:21:29;10.65;;;3.47;;
58864;SDS011;45702;52.982;6.658;2022-10-16T02:24:03;11.05;;;3.70;;
58864;SDS011;45702;52.982;6.658;2022-10-16T02:29:27;10.05;;;4.20;;
58864;SDS011;45702;52.982;6.658;2022-10-16T02:31:55;11.20;;;4.18;;
58864;SDS011;45702;52.982;6.658;2022-10-16T02:34:22;10.23;;;4.30;;
58864;SDS011;45702;52.982;6.658;2022-10-16T02:36:50;9.98;;;3.88;;
58864;SDS011;45702;52.982;6.658;2022-10-16T02:39:16;12.68;;;4.38;;
58864;SDS011;45702;52.982;6.658;2022-10-16T02:41:43;11.07;;;4.10;;
58864;SDS011;45702;52.982;6.658;2022-10-16T02:44:09;11.27;;;4.50;;
58864;SDS011;45702;52.982;6.658;2022-10-16T02:46:35;11.80;;;4.40;;
58864;SDS011;45702;52.982;6.658;2022-10-16T02:49:02;10.75;;;4.03;;
58864;SDS011;45702;52.982;6.658;2022-10-16T02:51:28;10.35;;;4.05;;
58864;SDS011;45702;52.982;6.658;2022-10-16T02:53:54;14.57;;;4.03;;
58864;SDS011;45702;52.982;6.658;2022-10-16T02:56:20;12.63;;;4.32;;
58864;SDS011;45702;52.982;6.658;2022-10-16T02:58:46;13.50;;;4.65;;
58864;SDS011;45702;52.982;6.658;2022-10-16T03:01:12;9.73;;;4.57;;
58864;SDS011;45702;52.982;6.658;2022-10-16T03:03:41;8.20;;;4.38;;
58864;SDS011;45702;52.982;6.658;2022-10-16T03:06:08;10.15;;;4.18;;
58864;SDS011;45702;52.982;6.658;2022-10-16T03:08:34;11.48;;;4.25;;
58864;SDS011;45702;52.982;6.658;2022-10-16T03:11:00;9.77;;;3.80;;
58864;SDS011;45702;52.982;6.658;2022-10-16T03:13:26;11.40;;;4.38;;
58864;SDS011;45702;52.982;6.658;2022-10-16T03:15:52;8.77;;;4.00;;
58864;SDS011;45702;52.982;6.658;2022-10-16T03:18:18;9.68;;;4.20;;
58864;SDS011;45702;52.982;6.658;2022-10-16T03:20:44;9.18;;;4.20;;
58864;SDS011;45702;52.982;6.658;2022-10-16T03:23:10;9.75;;;4.20;;
58864;SDS011;45702;52.982;6.658;2022-10-16T03:25:36;10.85;;;3.70;;
58864;SDS011;45702;52.982;6.658;2022-10-16T03:28:02;10.70;;;4.03;;
58864;SDS011;45702;52.982;6.658;2022-10-16T03:30:29;12.90;;;4.20;;
58864;SDS011;45702;52.982;6.658;2022-10-16T03:32:55;7.97;;;3.67;;
58864;SDS011;45702;52.982;6.658;2022-10-16T03:35:21;12.45;;;4.10;;
58864;SDS011;45702;52.982;6.658;2022-10-16T03:37:48;11.02;;;4.00;;
58864;SDS011;45702;52.982;6.658;2022-10-16T03:40:14;7.38;;;3.95;;
58864;SDS011;45702;52.982;6.658;2022-10-16T03:42:41;12.77;;;4.20;;
58864;SDS011;45702;52.982;6.658;2022-10-16T03:45:08;13.82;;;4.10;;
58864;SDS011;45702;52.982;6.658;2022-10-16T03:47:34;11.63;;;3.80;;
58864;SDS011;45702;52.982;6.658;2022-10-16T03:50:00;10.85;;;4.10;;
58864;SDS011;45702;52.982;6.658;2022-10-16T03:52:26;7.25;;;3.40;;
58864;SDS011;45702;52.982;6.658;2022-10-16T03:54:52;12.15;;;4.35;;
58864;SDS011;45702;52.982;6.658;2022-10-16T03:57:18;10.88;;;3.95;;
58864;SDS011;45702;52.982;6.658;2022-10-16T03:59:45;9.27;;;4.07;;
58864;SDS011;45702;52.982;6.658;2022-10-16T04:02:11;12.52;;;4.25;;
58864;SDS011;45702;52.982;6.658;2022-10-16T04:04:38;6.88;;;3.95;;
58864;SDS011;45702;52.982;6.658;2022-10-16T04:07:04;9.05;;;4.00;;
58864;SDS011;45702;52.982;6.658;2022-10-16T04:09:30;10.02;;;4.35;;
58864;SDS011;45702;52.982;6.658;2022-10-16T04:11:56;7.70;;;3.90;;
58864;SDS011;45702;52.982;6.658;2022-10-16T04:14:22;10.32;;;3.90;;
58864;SDS011;45702;52.982;6.658;2022-10-16T04:16:48;10.70;;;4.32;;
58864;SDS011;45702;52.982;6.658;2022-10-16T04:19:14;10.32;;;3.97;;
58864;SDS011;45702;52.982;6.658;2022-10-16T04:21:41;14.73;;;4.57;;
58864;SDS011;45702;52.982;6.658;2022-10-16T04:24:07;8.05;;;4.32;;
58864;SDS011;45702;52.982;6.658;2022-10-16T04:26:33;15.60;;;4.88;;
58864;SDS011;45702;52.982;6.658;2022-10-16T04:28:59;10.45;;;4.90;;
58864;SDS011;45702;52.982;6.658;2022-10-16T04:31:25;9.65;;;4.38;;
58864;SDS011;45702;52.982;6.658;2022-10-16T04:33:51;9.50;;;4.72;;
58864;SDS011;45702;52.982;6.658;2022-10-16T04:36:17;9.40;;;4.63;;
58864;SDS011;45702;52.982;6.658;2022-10-16T04:38:43;7.35;;;4.47;;
58864;SDS011;45702;52.982;6.658;2022-10-16T04:41:09;8.07;;;4.82;;
58864;SDS011;45702;52.982;6.658;2022-10-16T04:43:35;10.10;;;5.07;;
58864;SDS011;45702;52.982;6.658;2022-10-16T04:46:01;12.02;;;5.00;;
58864;SDS011;45702;52.982;6.658;2022-10-16T04:48:29;9.85;;;4.90;;
58864;SDS011;45702;52.982;6.658;2022-10-16T04:50:55;8.77;;;4.85;;
58864;SDS011;45702;52.982;6.658;2022-10-16T04:53:22;8.82;;;4.80;;
58864;SDS011;45702;52.982;6.658;2022-10-16T04:55:48;9.05;;;4.80;;
58864;SDS011;45702;52.982;6.658;2022-10-16T04:58:14;10.10;;;5.38;;
58864;SDS011;45702;52.982;6.658;2022-10-16T05:00:40;11.52;;;4.57;;
58864;SDS011;45702;52.982;6.658;2022-10-16T05:03:06;9.65;;;5.18;;
58864;SDS011;45702;52.982;6.658;2022-10-16T05:05:34;12.48;;;5.20;;
58864;SDS011;45702;52.982;6.658;2022-10-16T05:08:00;8.27;;;4.85;;
58864;SDS011;45702;52.982;6.658;2022-10-16T05:10:26;8.45;;;4.70;;
58864;SDS011;45702;52.982;6.658;2022-10-16T05:12:53;9.98;;;5.18;;
58864;SDS011;45702;52.982;6.658;2022-10-16T05:15:19;11.68;;;5.00;;
58864;SDS011;45702;52.982;6.658;2022-10-16T05:17:45;16.75;;;5.68;;
58864;SDS011;45702;52.982;6.658;2022-10-16T05:20:11;9.15;;;5.15;;
58864;SDS011;45702;52.982;6.658;2022-10-16T05:22:37;11.10;;;5.00;;
58864;SDS011;45702;52.982;6.658;2022-10-16T05:25:03;12.52;;;5.43;;
58864;SDS011;45702;52.982;6.658;2022-10-16T05:27:30;10.52;;;5.25;;
58864;SDS011;45702;52.982;6.658;2022-10-16T05:29:56;11.35;;;5.22;;
58864;SDS011;45702;52.982;6.658;2022-10-16T05:32:22;8.73;;;5.57;;
58864;SDS011;45702;52.982;6.658;2022-10-16T05:34:48;14.32;;;5.30;;
58864;SDS011;45702;52.982;6.658;2022-10-16T05:37:14;11.40;;;5.45;;
58864;SDS011;45702;52.982;6.658;2022-10-16T05:39:40;10.23;;;5.32;;
58864;SDS011;45702;52.982;6.658;2022-10-16T05:42:06;15.27;;;5.20;;
58864;SDS011;45702;52.982;6.658;2022-10-16T05:44:32;14.05;;;5.80;;
58864;SDS011;45702;52.982;6.658;2022-10-16T05:46:58;13.38;;;5.53;;
58864;SDS011;45702;52.982;6.658;2022-10-16T05:49:24;11.30;;;5.45;;
58864;SDS011;45702;52.982;6.658;2022-10-16T05:51:50;11.55;;;5.72;;
58864;SDS011;45702;52.982;6.658;2022-10-16T05:54:16;12.25;;;5.50;;
58864;SDS011;45702;52.982;6.658;2022-10-16T05:56:43;12.40;;;5.53;;
58864;SDS011;45702;52.982;6.658;2022-10-16T05:59:09;11.15;;;5.30;;
58864;SDS011;45702;52.982;6.658;2022-10-16T06:01:35;13.07;;;5.75;;
58864;SDS011;45702;52.982;6.658;2022-10-16T06:04:01;10.80;;;5.53;;
58864;SDS011;45702;52.982;6.658;2022-10-16T06:06:28;12.18;;;5.05;;
58864;SDS011;45702;52.982;6.658;2022-10-16T06:08:55;14.35;;;5.60;;
58864;SDS011;45702;52.982;6.658;2022-10-16T06:11:23;11.32;;;5.85;;
58864;SDS011;45702;52.982;6.658;2022-10-16T06:13:50;9.95;;;5.75;;
58864;SDS011;45702;52.982;6.658;2022-10-16T06:16:17;10.23;;;5.45;;
58864;SDS011;45702;52.982;6.658;2022-10-16T06:18:43;16.33;;;6.20;;
58864;SDS011;45702;52.982;6.658;2022-10-16T06:21:10;10.88;;;5.38;;
58864;SDS011;45702;52.982;6.658;2022-10-16T06:23:36;12.20;;;5.38;;
58864;SDS011;45702;52.982;6.658;2022-10-16T06:26:09;10.32;;;4.90;;
58864;SDS011;45702;52.982;6.658;2022-10-16T06:28:36;12.50;;;5.38;;
58864;SDS011;45702;52.982;6.658;2022-10-16T06:31:02;11.18;;;5.10;;
58864;SDS011;45702;52.982;6.658;2022-10-16T06:33:29;8.93;;;5.32;;
58864;SDS011;45702;52.982;6.658;2022-10-16T06:36:05;10.02;;;4.93;;
58864;SDS011;45702;52.982;6.658;2022-10-16T06:38:32;11.18;;;5.30;;
58864;SDS011;45702;52.982;6.658;2022-10-16T06:40:58;11.57;;;5.45;;
58864;SDS011;45702;52.982;6.658;2022-10-16T06:43:24;15.60;;;4.95;;
58864;SDS011;45702;52.982;6.658;2022-10-16T06:45:54;8.23;;;4.53;;
58864;SDS011;45702;52.982;6.658;2022-10-16T06:48:20;12.23;;;4.80;;
58864;SDS011;45702;52.982;6.658;2022-10-16T06:53:22;9.93;;;4.30;;
58864;SDS011;45702;52.982;6.658;2022-10-16T06:55:48;8.90;;;4.60;;
58864;SDS011;45702;52.982;6.658;2022-10-16T06:58:14;12.45;;;4.72;;
58864;SDS011;45702;52.982;6.658;2022-10-16T07:00:40;12.73;;;4.72;;
58864;SDS011;45702;52.982;6.658;2022-10-16T07:03:06;11.57;;;4.80;;
58864;SDS011;45702;52.982;6.658;2022-10-16T07:05:48;9.10;;;4.60;;
58864;SDS011;45702;52.982;6.658;2022-10-16T07:08:15;9.07;;;4.47;;
58864;SDS011;45702;52.982;6.658;2022-10-16T07:10:41;11.73;;;4.55;;
58864;SDS011;45702;52.982;6.658;2022-10-16T07:13:07;8.93;;;5.10;;
58864;SDS011;45702;52.982;6.658;2022-10-16T07:15:33;8.05;;;4.25;;
58864;SDS011;45702;52.982;6.658;2022-10-16T07:17:59;10.15;;;4.38;;
58864;SDS011;45702;52.982;6.658;2022-10-16T07:20:25;10.05;;;4.22;;
58864;SDS011;45702;52.982;6.658;2022-10-16T07:22:51;9.52;;;4.10;;
58864;SDS011;45702;52.982;6.658;2022-10-16T07:25:17;11.93;;;4.15;;
58864;SDS011;45702;52.982;6.658;2022-10-16T07:27:43;12.15;;;4.80;;
58864;SDS011;45702;52.982;6.658;2022-10-16T07:30:10;10.57;;;4.40;;
58864;SDS011;45702;52.982;6.658;2022-10-16T07:32:36;9.80;;;4.40;;
58864;SDS011;45702;52.982;6.658;2022-10-16T07:35:02;17.92;;;4.57;;
58864;SDS011;45702;52.982;6.658;2022-10-16T07:37:28;16.45;;;4.57;;
58864;SDS011;45702;52.982;6.658;2022-10-16T07:39:54;9.82;;;4.28;;
58864;SDS011;45702;52.982;6.658;2022-10-16T07:42:20;10.73;;;3.88;;
58864;SDS011;45702;52.982;6.658;2022-10-16T07:44:46;12.07;;;4.53;;
58864;SDS011;45702;52.982;6.658;2022-10-16T07:47:12;12.00;;;4.50;;
58864;SDS011;45702;52.982;6.658;2022-10-16T07:49:38;9.18;;;4.10;;
58864;SDS011;45702;52.982;6.658;2022-10-16T07:52:04;14.00;;;4.00;;
58864;SDS011;45702;52.982;6.658;2022-10-16T07:54:30;10.60;;;3.83;;
58864;SDS011;45702;52.982;6.658;2022-10-16T07:56:56;8.57;;;3.53;;
58864;SDS011;45702;52.982;6.658;2022-10-16T07:59:22;10.45;;;3.80;;
58864;SDS011;45702;52.982;6.658;2022-10-16T08:01:48;8.43;;;3.33;;
58864;SDS011;45702;52.982;6.658;2022-10-16T08:04:15;9.60;;;3.67;;
58864;SDS011;45702;52.982;6.658;2022-10-16T08:06:41;8.57;;;3.78;;
58864;SDS011;45702;52.982;6.658;2022-10-16T08:09:07;8.70;;;4.18;;
58864;SDS011;45702;52.982;6.658;2022-10-16T08:11:34;9.63;;;3.88;;
58864;SDS011;45702;52.982;6.658;2022-10-16T08:14:00;9.45;;;3.28;;
58864;SDS011;45702;52.982;6.658;2022-10-16T08:16:26;11.05;;;3.38;;
58864;SDS011;45702;52.982;6.658;2022-10-16T08:18:52;7.38;;;3.10;;
58864;SDS011;45702;52.982;6.658;2022-10-16T08:21:19;7.38;;;2.85;;
58864;SDS011;45702;52.982;6.658;2022-10-16T08:23:45;10.20;;;2.83;;
58864;SDS011;45702;52.982;6.658;2022-10-16T08:26:12;11.35;;;2.72;;
58864;SDS011;45702;52.982;6.658;2022-10-16T08:28:38;8.93;;;2.30;;
58864;SDS011;45702;52.982;6.658;2022-10-16T08:31:08;8.75;;;2.42;;
58864;SDS011;45702;52.982;6.658;2022-10-16T08:33:34;8.32;;;2.40;;
58864;SDS011;45702;52.982;6.658;2022-10-16T08:36:01;8.00;;;2.20;;
58864;SDS011;45702;52.982;6.658;2022-10-16T08:38:27;7.80;;;2.58;;
58864;SDS011;45702;52.982;6.658;2022-10-16T08:40:53;5.65;;;2.10;;
58864;SDS011;45702;52.982;6.658;2022-10-16T08:43:24;8.68;;;1.90;;
58864;SDS011;45702;52.982;6.658;2022-10-16T08:46:10;7.80;;;2.30;;
58864;SDS011;45702;52.982;6.658;2022-10-16T08:51:08;5.60;;;2.42;;
58864;SDS011;45702;52.982;6.658;2022-10-16T08:54:20;6.97;;;1.80;;
58864;SDS011;45702;52.982;6.658;2022-10-16T08:56:24;8.02;;;2.05;;
58864;SDS011;45702;52.982;6.658;2022-10-16T08:58:51;11.10;;;2.35;;
58864;SDS011;45702;52.982;6.658;2022-10-16T09:01:19;14.77;;;2.53;;
58864;SDS011;45702;52.982;6.658;2022-10-16T09:17:07;11.50;;;2.22;;
58864;SDS011;45702;52.982;6.658;2022-10-16T09:19:40;13.05;;;2.38;;
58864;SDS011;45702;52.982;6.658;2022-10-16T09:22:12;9.27;;;2.72;;
58864;SDS011;45702;52.982;6.658;2022-10-16T09:24:40;11.93;;;2.50;;
58864;SDS011;45702;52.982;6.658;2022-10-16T09:27:12;9.02;;;2.60;;
58864;SDS011;45702;52.982;6.658;2022-10-16T09:29:39;10.23;;;2.50;;
58864;SDS011;45702;52.982;6.658;2022-10-16T09:32:12;10.48;;;2.38;;
58864;SDS011;45702;52.982;6.658;2022-10-16T09:34:52;15.80;;;3.08;;
58864;SDS011;45702;52.982;6.658;2022-10-16T09:37:21;11.85;;;2.47;;
58864;SDS011;45702;52.982;6.658;2022-10-16T09:39:52;14.50;;;2.78;;
58864;SDS011;45702;52.982;6.658;2022-10-16T09:42:19;13.27;;;2.30;;
58864;SDS011;45702;52.982;6.658;2022-10-16T09:44:49;13.65;;;3.03;;
58864;SDS011;45702;52.982;6.658;2022-10-16T09:47:20;14.65;;;3.28;;
58864;SDS011;45702;52.982;6.658;2022-10-16T09:49:51;11.90;;;2.55;;
58864;SDS011;45702;52.982;6.658;2022-10-16T09:52:18;11.65;;;2.70;;
58864;SDS011;45702;52.982;6.658;2022-10-16T09:54:54;16.58;;;2.50;;
58864;SDS011;45702;52.982;6.658;2022-10-16T09:57:21;10.25;;;2.10;;
58864;SDS011;45702;52.982;6.658;2022-10-16T09:59:48;12.30;;;2.63;;
58864;SDS011;45702;52.982;6.658;2022-10-16T10:02:15;15.75;;;2.33;;
58864;SDS011;45702;52.982;6.658;2022-10-16T10:04:44;12.43;;;2.47;;
58864;SDS011;45702;52.982;6.658;2022-10-16T10:07:18;12.13;;;2.88;;
58864;SDS011;45702;52.982;6.658;2022-10-16T10:09:46;12.43;;;2.53;;
58864;SDS011;45702;52.982;6.658;2022-10-16T10:12:19;16.20;;;2.78;;
58864;SDS011;45702;52.982;6.658;2022-10-16T10:14:47;13.63;;;2.88;;
58864;SDS011;45702;52.982;6.658;2022-10-16T10:17:20;13.65;;;2.38;;
58864;SDS011;45702;52.982;6.658;2022-10-16T10:22:42;13.77;;;2.35;;
58864;SDS011;45702;52.982;6.658;2022-10-16T10:43:45;17.70;;;2.47;;
58864;SDS011;45702;52.982;6.658;2022-10-16T10:46:57;18.63;;;2.35;;
58864;SDS011;45702;52.982;6.658;2022-10-16T10:49:24;13.63;;;2.38;;
58864;SDS011;45702;52.982;6.658;2022-10-16T11:01:56;11.73;;;2.70;;
58864;SDS011;45702;52.982;6.658;2022-10-16T11:07:13;15.18;;;2.65;;
58864;SDS011;45702;52.982;6.658;2022-10-16T11:09:45;20.25;;;2.88;;
58864;SDS011;45702;52.982;6.658;2022-10-16T11:12:20;12.38;;;2.40;;
58864;SDS011;45702;52.982;6.658;2022-10-16T11:17:22;16.27;;;3.92;;
58864;SDS011;45702;52.982;6.658;2022-10-16T11:22:39;13.65;;;2.70;;
58864;SDS011;45702;52.982;6.658;2022-10-16T11:30:12;15.63;;;2.50;;
58864;SDS011;45702;52.982;6.658;2022-10-16T11:35:17;12.13;;;2.42;;
58864;SDS011;45702;52.982;6.658;2022-10-16T11:37:46;14.30;;;2.63;;
58864;SDS011;45702;52.982;6.658;2022-10-16T11:40:28;15.45;;;3.20;;
58864;SDS011;45702;52.982;6.658;2022-10-16T11:45:54;15.35;;;2.50;;
58864;SDS011;45702;52.982;6.658;2022-10-16T11:50:54;18.75;;;2.13;;
58864;SDS011;45702;52.982;6.658;2022-10-16T11:55:49;15.15;;;2.15;;
58864;SDS011;45702;52.982;6.658;2022-10-16T11:58:20;18.42;;;3.08;;
58864;SDS011;45702;52.982;6.658;2022-10-16T12:08:24;15.57;;;2.40;;
58864;SDS011;45702;52.982;6.658;2022-10-16T12:10:51;15.05;;;2.42;;
58864;SDS011;45702;52.982;6.658;2022-10-16T12:13:30;13.13;;;2.30;;
58864;SDS011;45702;52.982;6.658;2022-10-16T12:18:39;17.95;;;3.00;;
58864;SDS011;45702;52.982;6.658;2022-10-16T12:21:05;15.25;;;2.10;;
58864;SDS011;45702;52.982;6.658;2022-10-16T12:23:33;18.27;;;2.15;;
58864;SDS011;45702;52.982;6.658;2022-10-16T12:26:02;17.98;;;2.42;;
58864;SDS011;45702;52.982;6.658;2022-10-16T12:28:29;15.18;;;2.40;;
58864;SDS011;45702;52.982;6.658;2022-10-16T12:31:01;15.43;;;2.25;;
58864;SDS011;45702;52.982;6.658;2022-10-16T12:33:28;15.23;;;2.30;;
58864;SDS011;45702;52.982;6.658;2022-10-16T12:35:54;16.52;;;2.20;;
58864;SDS011;45702;52.982;6.658;2022-10-16T12:38:24;15.02;;;2.47;;
58864;SDS011;45702;52.982;6.658;2022-10-16T12:40:55;13.48;;;2.22;;
58864;SDS011;45702;52.982;6.658;2022-10-16T12:45:58;15.35;;;2.13;;
58864;SDS011;45702;52.982;6.658;2022-10-16T12:48:24;10.95;;;1.90;;
58864;SDS011;45702;52.982;6.658;2022-10-16T12:50:50;13.35;;;1.90;;
58864;SDS011;45702;52.982;6.658;2022-10-16T12:53:25;15.85;;;2.20;;
58864;SDS011;45702;52.982;6.658;2022-10-16T13:00:56;15.18;;;2.30;;
58864;SDS011;45702;52.982;6.658;2022-10-16T13:06:19;9.35;;;2.00;;
58864;SDS011;45702;52.982;6.658;2022-10-16T13:16:19;15.93;;;2.25;;
58864;SDS011;45702;52.982;6.658;2022-10-16T13:26:16;10.48;;;1.42;;
58864;SDS011;45702;52.982;6.658;2022-10-16T13:28:46;17.58;;;2.03;;
58864;SDS011;45702;52.982;6.658;2022-10-16T13:31:17;9.40;;;1.98;;
58864;SDS011;45702;52.982;6.658;2022-10-16T13:33:45;13.88;;;2.17;;
58864;SDS011;45702;52.982;6.658;2022-10-16T13:39:27;13.35;;;1.40;;
58864;SDS011;45702;52.982;6.658;2022-10-16T13:44:26;11.63;;;1.73;;
58864;SDS011;45702;52.982;6.658;2022-10-16T13:46:58;16.35;;;1.80;;
58864;SDS011;45702;52.982;6.658;2022-10-16T13:49:25;17.88;;;1.85;;
58864;SDS011;45702;52.982;6.658;2022-10-16T13:51:55;18.88;;;1.95;;
58864;SDS011;45702;52.982;6.658;2022-10-16T13:54:21;14.57;;;1.75;;
58864;SDS011;45702;52.982;6.658;2022-10-16T13:56:47;15.82;;;1.83;;
58864;SDS011;45702;52.982;6.658;2022-10-16T14:01:49;18.83;;;2.78;;
58864;SDS011;45702;52.982;6.658;2022-10-16T14:04:16;14.00;;;1.77;;
58864;SDS011;45702;52.982;6.658;2022-10-16T14:06:44;19.77;;;2.20;;
58864;SDS011;45702;52.982;6.658;2022-10-16T14:11:46;17.63;;;2.15;;
58864;SDS011;45702;52.982;6.658;2022-10-16T14:14:14;10.85;;;1.83;;
58864;SDS011;45702;52.982;6.658;2022-10-16T14:16:41;14.43;;;2.10;;
58864;SDS011;45702;52.982;6.658;2022-10-16T14:19:27;18.83;;;2.45;;
58864;SDS011;45702;52.982;6.658;2022-10-16T14:21:54;17.00;;;1.88;;
58864;SDS011;45702;52.982;6.658;2022-10-16T14:24:27;14.18;;;1.80;;
58864;SDS011;45702;52.982;6.658;2022-10-16T14:26:56;13.90;;;2.17;;
58864;SDS011;45702;52.982;6.658;2022-10-16T14:29:23;16.33;;;2.13;;
58864;SDS011;45702;52.982;6.658;2022-10-16T14:31:57;15.52;;;1.98;;
58864;SDS011;45702;52.982;6.658;2022-10-16T14:34:24;11.05;;;2.15;;
58864;SDS011;45702;52.982;6.658;2022-10-16T14:36:52;16.83;;;2.33;;
58864;SDS011;45702;52.982;6.658;2022-10-16T14:39:19;21.80;;;2.83;;
58864;SDS011;45702;52.982;6.658;2022-10-16T14:41:47;13.67;;;1.83;;
58864;SDS011;45702;52.982;6.658;2022-10-16T14:44:13;18.75;;;2.25;;
58864;SDS011;45702;52.982;6.658;2022-10-16T14:46:41;19.75;;;2.45;;
58864;SDS011;45702;52.982;6.658;2022-10-16T14:51:38;17.98;;;2.50;;
58864;SDS011;45702;52.982;6.658;2022-10-16T14:54:07;18.75;;;2.10;;
58864;SDS011;45702;52.982;6.658;2022-10-16T14:56:44;18.17;;;2.60;;
58864;SDS011;45702;52.982;6.658;2022-10-16T14:59:14;17.30;;;2.50;;
58864;SDS011;45702;52.982;6.658;2022-10-16T15:01:42;14.02;;;2.10;;
58864;SDS011;45702;52.982;6.658;2022-10-16T15:04:09;12.18;;;2.50;;
58864;SDS011;45702;52.982;6.658;2022-10-16T15:06:37;19.48;;;3.05;;
58864;SDS011;45702;52.982;6.658;2022-10-16T15:09:03;12.93;;;2.40;;
58864;SDS011;45702;52.982;6.658;2022-10-16T15:11:29;20.27;;;2.72;;
58864;SDS011;45702;52.982;6.658;2022-10-16T15:13:58;16.90;;;2.30;;
58864;SDS011;45702;52.982;6.658;2022-10-16T15:16:24;18.50;;;2.78;;
58864;SDS011;45702;52.982;6.658;2022-10-16T15:18:50;12.75;;;2.47;;
58864;SDS011;45702;52.982;6.658;2022-10-16T15:21:25;19.42;;;3.03;;
58864;SDS011;45702;52.982;6.658;2022-10-16T15:23:52;16.67;;;2.90;;
58864;SDS011;45702;52.982;6.658;2022-10-16T15:26:18;14.40;;;3.00;;
58864;SDS011;45702;52.982;6.658;2022-10-16T15:28:44;21.30;;;3.03;;
58864;SDS011;45702;52.982;6.658;2022-10-16T15:31:10;12.90;;;2.72;;
58864;SDS011;45702;52.982;6.658;2022-10-16T15:33:37;20.27;;;3.00;;
58864;SDS011;45702;52.982;6.658;2022-10-16T15:36:03;15.80;;;3.20;;
58864;SDS011;45702;52.982;6.658;2022-10-16T15:38:29;15.95;;;2.83;;
58864;SDS011;45702;52.982;6.658;2022-10-16T15:40:55;23.25;;;2.65;;
58864;SDS011;45702;52.982;6.658;2022-10-16T15:43:21;23.05;;;3.05;;
58864;SDS011;45702;52.982;6.658;2022-10-16T15:45:58;13.38;;;2.22;;
58864;SDS011;45702;52.982;6.658;2022-10-16T15:50:52;18.08;;;2.80;;
58864;SDS011;45702;52.982;6.658;2022-10-16T15:53:18;16.08;;;2.88;;
58864;SDS011;45702;52.982;6.658;2022-10-16T15:55:44;17.45;;;2.60;;
58864;SDS011;45702;52.982;6.658;2022-10-16T15:58:10;21.05;;;3.22;;
58864;SDS011;45702;52.982;6.658;2022-10-16T16:00:36;16.90;;;2.90;;
58864;SDS011;45702;52.982;6.658;2022-10-16T16:03:03;16.67;;;3.08;;
58864;SDS011;45702;52.982;6.658;2022-10-16T16:05:29;20.10;;;3.13;;
58864;SDS011;45702;52.982;6.658;2022-10-16T16:07:56;13.98;;;2.92;;
58864;SDS011;45702;52.982;6.658;2022-10-16T16:10:22;15.43;;;2.85;;
58864;SDS011;45702;52.982;6.658;2022-10-16T16:12:49;21.60;;;4.63;;
58864;SDS011;45702;52.982;6.658;2022-10-16T16:15:18;26.92;;;6.53;;
58864;SDS011;45702;52.982;6.658;2022-10-16T16:17:44;18.90;;;4.35;;
58864;SDS011;45702;52.982;6.658;2022-10-16T16:20:11;11.32;;;3.10;;
58864;SDS011;45702;52.982;6.658;2022-10-16T16:22:37;18.17;;;2.92;;
58864;SDS011;45702;52.982;6.658;2022-10-16T16:25:03;16.10;;;2.70;;
58864;SDS011;45702;52.982;6.658;2022-10-16T16:27:29;13.98;;;2.47;;
58864;SDS011;45702;52.982;6.658;2022-10-16T16:29:58;19.67;;;2.60;;
58864;SDS011;45702;52.982;6.658;2022-10-16T16:32:25;17.92;;;2.63;;
58864;SDS011;45702;52.982;6.658;2022-10-16T16:34:51;17.65;;;3.58;;
58864;SDS011;45702;52.982;6.658;2022-10-16T16:37:17;19.30;;;2.92;;
58864;SDS011;45702;52.982;6.658;2022-10-16T16:39:43;16.48;;;3.03;;
58864;SDS011;45702;52.982;6.658;2022-10-16T16:42:09;20.05;;;2.60;;
58864;SDS011;45702;52.982;6.658;2022-10-16T16:44:35;30.02;;;3.17;;
58864;SDS011;45702;52.982;6.658;2022-10-16T16:47:02;19.40;;;3.03;;
58864;SDS011;45702;52.982;6.658;2022-10-16T16:49:29;18.83;;;4.00;;
58864;SDS011;45702;52.982;6.658;2022-10-16T16:51:55;25.55;;;4.00;;
58864;SDS011;45702;52.982;6.658;2022-10-16T16:54:21;22.65;;;4.03;;
58864;SDS011;45702;52.982;6.658;2022-10-16T16:56:47;18.48;;;4.30;;
58864;SDS011;45702;52.982;6.658;2022-10-16T16:59:14;18.48;;;3.25;;
58864;SDS011;45702;52.982;6.658;2022-10-16T17:01:40;19.38;;;3.38;;
58864;SDS011;45702;52.982;6.658;2022-10-16T17:04:07;20.85;;;3.63;;